sensor_id;sensor_type;location;lat;lon;timestamp;P1;durP1;ratioP1;P2;durP2;ratioP2
29422;SDS011;16399;51.686;8.684;2023-08-08T00:02:55;6.72;;;2.65;;
29422;SDS011;16399;51.686;8.684;2023-08-08T00:05:57;8.40;;;2.62;;
29422;SDS011;16399;51.686;8.684;2023-08-08T00:08:59;5.67;;;2.45;;
29422;SDS011;16399;51.686;8.684;2023-08-08T00:12:01;4.95;;;2.35;;
29422;SDS011;16399;51.686;8.684;2023-08-08T00:15:04;5.22;;;2.42;;
29422;SDS011;16399;51.686;8.684;2023-08-08T00:18:07;5.20;;;2.35;;
29422;SDS011;16399;51.686;8.684;2023-08-08T00:21:09;5.90;;;2.12;;
29422;SDS011;16399;51.686;8.684;2023-08-08T00:24:11;11.12;;;2.62;;
29422;SDS011;16399;51.686;8.684;2023-08-08T00:27:14;7.10;;;2.42;;
29422;SDS011;16399;51.686;8.684;2023-08-08T00:30:16;4.28;;;2.05;;
29422;SDS011;16399;51.686;8.684;2023-08-08T00:33:19;6.45;;;2.25;;
29422;SDS011;16399;51.686;8.684;2023-08-08T00:36:21;5.45;;;2.20;;
29422;SDS011;16399;51.686;8.684;2023-08-08T00:39:23;6.17;;;2.40;;
29422;SDS011;16399;51.686;8.684;2023-08-08T00:42:25;6.22;;;2.40;;
29422;SDS011;16399;51.686;8.684;2023-08-08T00:45:28;7.20;;;2.55;;
29422;SDS011;16399;51.686;8.684;2023-08-08T00:48:30;4.70;;;1.82;;
29422;SDS011;16399;51.686;8.684;2023-08-08T00:51:33;4.90;;;2.15;;
29422;SDS011;16399;51.686;8.684;2023-08-08T00:54:36;4.83;;;1.72;;
29422;SDS011;16399;51.686;8.684;2023-08-08T00:57:39;4.72;;;1.80;;
29422;SDS011;16399;51.686;8.684;2023-08-08T01:00:42;3.98;;;1.82;;
29422;SDS011;16399;51.686;8.684;2023-08-08T01:03:44;6.67;;;2.08;;
29422;SDS011;16399;51.686;8.684;2023-08-08T01:07:30;6.12;;;2.17;;
29422;SDS011;16399;51.686;8.684;2023-08-08T01:10:17;5.28;;;1.77;;
29422;SDS011;16399;51.686;8.684;2023-08-08T01:13:28;5.08;;;1.95;;
29422;SDS011;16399;51.686;8.684;2023-08-08T01:16:32;6.53;;;1.80;;
29422;SDS011;16399;51.686;8.684;2023-08-08T01:19:35;4.83;;;2.17;;
29422;SDS011;16399;51.686;8.684;2023-08-08T01:22:39;6.25;;;1.80;;
29422;SDS011;16399;51.686;8.684;2023-08-08T01:25:43;7.17;;;1.80;;
29422;SDS011;16399;51.686;8.684;2023-08-08T01:28:47;4.95;;;1.75;;
29422;SDS011;16399;51.686;8.684;2023-08-08T01:31:49;6.03;;;1.50;;
29422;SDS011;16399;51.686;8.684;2023-08-08T01:34:52;6.67;;;1.80;;
29422;SDS011;16399;51.686;8.684;2023-08-08T01:37:56;8.65;;;1.60;;
29422;SDS011;16399;51.686;8.684;2023-08-08T01:40:59;4.30;;;1.70;;
29422;SDS011;16399;51.686;8.684;2023-08-08T01:44:03;3.95;;;1.42;;
29422;SDS011;16399;51.686;8.684;2023-08-08T01:47:07;4.80;;;1.70;;
29422;SDS011;16399;51.686;8.684;2023-08-08T01:50:10;7.08;;;1.80;;
29422;SDS011;16399;51.686;8.684;2023-08-08T01:53:12;4.15;;;1.60;;
29422;SDS011;16399;51.686;8.684;2023-08-08T01:56:14;5.40;;;1.57;;
29422;SDS011;16399;51.686;8.684;2023-08-08T01:59:16;4.10;;;1.57;;
29422;SDS011;16399;51.686;8.684;2023-08-08T02:02:19;4.55;;;1.52;;
29422;SDS011;16399;51.686;8.684;2023-08-08T02:05:21;4.72;;;1.82;;
29422;SDS011;16399;51.686;8.684;2023-08-08T02:08:23;4.55;;;1.70;;
29422;SDS011;16399;51.686;8.684;2023-08-08T02:11:26;3.15;;;1.60;;
29422;SDS011;16399;51.686;8.684;2023-08-08T02:14:28;4.75;;;2.05;;
29422;SDS011;16399;51.686;8.684;2023-08-08T02:17:30;5.33;;;1.85;;
29422;SDS011;16399;51.686;8.684;2023-08-08T02:20:33;5.15;;;1.65;;
29422;SDS011;16399;51.686;8.684;2023-08-08T02:23:35;3.47;;;1.80;;
29422;SDS011;16399;51.686;8.684;2023-08-08T02:26:37;4.20;;;1.92;;
29422;SDS011;16399;51.686;8.684;2023-08-08T02:29:39;4.33;;;1.62;;
29422;SDS011;16399;51.686;8.684;2023-08-08T02:32:42;6.37;;;2.02;;
29422;SDS011;16399;51.686;8.684;2023-08-08T02:35:44;3.42;;;1.62;;
29422;SDS011;16399;51.686;8.684;2023-08-08T02:38:47;4.33;;;1.60;;
29422;SDS011;16399;51.686;8.684;2023-08-08T02:41:50;5.05;;;1.67;;
29422;SDS011;16399;51.686;8.684;2023-08-08T02:44:52;6.17;;;2.02;;
29422;SDS011;16399;51.686;8.684;2023-08-08T02:47:54;3.47;;;1.60;;
29422;SDS011;16399;51.686;8.684;2023-08-08T02:50:57;5.15;;;2.00;;
29422;SDS011;16399;51.686;8.684;2023-08-08T02:53:59;5.08;;;2.22;;
29422;SDS011;16399;51.686;8.684;2023-08-08T02:57:01;5.35;;;1.80;;
29422;SDS011;16399;51.686;8.684;2023-08-08T03:00:04;4.65;;;1.82;;
29422;SDS011;16399;51.686;8.684;2023-08-08T03:03:08;6.70;;;1.98;;
29422;SDS011;16399;51.686;8.684;2023-08-08T03:06:10;3.50;;;1.60;;
29422;SDS011;16399;51.686;8.684;2023-08-08T03:09:13;3.60;;;1.60;;
29422;SDS011;16399;51.686;8.684;2023-08-08T03:12:15;4.28;;;1.72;;
29422;SDS011;16399;51.686;8.684;2023-08-08T03:15:17;3.37;;;1.55;;
29422;SDS011;16399;51.686;8.684;2023-08-08T03:18:20;4.70;;;1.57;;
29422;SDS011;16399;51.686;8.684;2023-08-08T03:21:23;3.65;;;1.60;;
29422;SDS011;16399;51.686;8.684;2023-08-08T03:24:25;3.27;;;1.57;;
29422;SDS011;16399;51.686;8.684;2023-08-08T03:27:28;5.60;;;1.82;;
29422;SDS011;16399;51.686;8.684;2023-08-08T03:30:30;5.15;;;1.82;;
29422;SDS011;16399;51.686;8.684;2023-08-08T03:33:32;3.60;;;1.85;;
29422;SDS011;16399;51.686;8.684;2023-08-08T03:36:34;3.15;;;1.52;;
29422;SDS011;16399;51.686;8.684;2023-08-08T03:39:37;4.53;;;1.70;;
29422;SDS011;16399;51.686;8.684;2023-08-08T03:42:39;4.25;;;1.85;;
29422;SDS011;16399;51.686;8.684;2023-08-08T03:45:41;4.80;;;2.12;;
29422;SDS011;16399;51.686;8.684;2023-08-08T03:48:45;5.70;;;2.20;;
29422;SDS011;16399;51.686;8.684;2023-08-08T03:51:47;6.80;;;2.50;;
29422;SDS011;16399;51.686;8.684;2023-08-08T03:54:50;4.70;;;2.05;;
29422;SDS011;16399;51.686;8.684;2023-08-08T03:57:53;5.20;;;2.17;;
29422;SDS011;16399;51.686;8.684;2023-08-08T04:00:55;7.53;;;2.20;;
29422;SDS011;16399;51.686;8.684;2023-08-08T04:03:58;4.25;;;2.15;;
29422;SDS011;16399;51.686;8.684;2023-08-08T04:07:00;7.20;;;2.30;;
29422;SDS011;16399;51.686;8.684;2023-08-08T04:10:02;4.47;;;2.20;;
29422;SDS011;16399;51.686;8.684;2023-08-08T04:13:05;4.05;;;2.02;;
29422;SDS011;16399;51.686;8.684;2023-08-08T04:16:07;4.97;;;2.30;;
29422;SDS011;16399;51.686;8.684;2023-08-08T04:19:09;4.97;;;2.40;;
29422;SDS011;16399;51.686;8.684;2023-08-08T04:22:12;5.72;;;2.27;;
29422;SDS011;16399;51.686;8.684;2023-08-08T04:25:16;7.13;;;2.77;;
29422;SDS011;16399;51.686;8.684;2023-08-08T04:28:18;5.45;;;2.22;;
29422;SDS011;16399;51.686;8.684;2023-08-08T04:31:21;6.12;;;2.40;;
29422;SDS011;16399;51.686;8.684;2023-08-08T04:34:24;3.93;;;1.80;;
29422;SDS011;16399;51.686;8.684;2023-08-08T04:37:27;5.72;;;2.08;;
29422;SDS011;16399;51.686;8.684;2023-08-08T04:40:29;6.60;;;1.82;;
29422;SDS011;16399;51.686;8.684;2023-08-08T04:43:31;5.58;;;2.25;;
29422;SDS011;16399;51.686;8.684;2023-08-08T04:46:34;5.72;;;2.25;;
29422;SDS011;16399;51.686;8.684;2023-08-08T04:49:36;6.15;;;2.25;;
29422;SDS011;16399;51.686;8.684;2023-08-08T04:52:38;9.05;;;2.45;;
29422;SDS011;16399;51.686;8.684;2023-08-08T04:55:41;4.90;;;2.02;;
29422;SDS011;16399;51.686;8.684;2023-08-08T04:58:43;6.65;;;2.10;;
29422;SDS011;16399;51.686;8.684;2023-08-08T05:01:45;5.85;;;2.17;;
29422;SDS011;16399;51.686;8.684;2023-08-08T05:04:47;6.37;;;2.30;;
29422;SDS011;16399;51.686;8.684;2023-08-08T05:07:50;7.83;;;2.47;;
29422;SDS011;16399;51.686;8.684;2023-08-08T05:10:52;9.85;;;2.50;;
29422;SDS011;16399;51.686;8.684;2023-08-08T05:13:55;6.37;;;2.15;;
29422;SDS011;16399;51.686;8.684;2023-08-08T05:16:57;6.12;;;2.45;;
29422;SDS011;16399;51.686;8.684;2023-08-08T05:20:00;6.92;;;2.67;;
29422;SDS011;16399;51.686;8.684;2023-08-08T05:23:02;7.85;;;2.15;;
29422;SDS011;16399;51.686;8.684;2023-08-08T05:26:04;8.98;;;2.42;;
29422;SDS011;16399;51.686;8.684;2023-08-08T05:29:06;6.78;;;2.00;;
29422;SDS011;16399;51.686;8.684;2023-08-08T05:32:09;9.30;;;2.25;;
29422;SDS011;16399;51.686;8.684;2023-08-08T05:35:11;6.90;;;1.90;;
29422;SDS011;16399;51.686;8.684;2023-08-08T05:38:14;4.30;;;2.02;;
29422;SDS011;16399;51.686;8.684;2023-08-08T05:41:16;6.28;;;2.20;;
29422;SDS011;16399;51.686;8.684;2023-08-08T05:44:18;5.72;;;1.90;;
29422;SDS011;16399;51.686;8.684;2023-08-08T05:47:21;6.25;;;2.30;;
29422;SDS011;16399;51.686;8.684;2023-08-08T05:50:23;3.92;;;2.10;;
29422;SDS011;16399;51.686;8.684;2023-08-08T05:53:25;6.92;;;2.85;;
29422;SDS011;16399;51.686;8.684;2023-08-08T05:56:34;4.62;;;2.17;;
29422;SDS011;16399;51.686;8.684;2023-08-08T05:59:37;7.05;;;2.72;;
29422;SDS011;16399;51.686;8.684;2023-08-08T06:02:40;5.95;;;2.00;;
29422;SDS011;16399;51.686;8.684;2023-08-08T06:05:42;6.33;;;2.55;;
29422;SDS011;16399;51.686;8.684;2023-08-08T06:08:45;9.18;;;2.95;;
29422;SDS011;16399;51.686;8.684;2023-08-08T06:11:47;6.72;;;2.72;;
29422;SDS011;16399;51.686;8.684;2023-08-08T06:14:49;5.08;;;2.60;;
29422;SDS011;16399;51.686;8.684;2023-08-08T06:17:52;7.55;;;2.70;;
29422;SDS011;16399;51.686;8.684;2023-08-08T06:20:55;7.12;;;3.35;;
29422;SDS011;16399;51.686;8.684;2023-08-08T06:23:57;9.05;;;3.55;;
29422;SDS011;16399;51.686;8.684;2023-08-08T06:26:59;10.20;;;3.72;;
29422;SDS011;16399;51.686;8.684;2023-08-08T06:30:01;6.25;;;3.80;;
29422;SDS011;16399;51.686;8.684;2023-08-08T06:33:04;8.65;;;5.00;;
29422;SDS011;16399;51.686;8.684;2023-08-08T06:36:06;8.25;;;4.20;;
29422;SDS011;16399;51.686;8.684;2023-08-08T06:39:09;8.28;;;4.25;;
29422;SDS011;16399;51.686;8.684;2023-08-08T06:42:11;7.78;;;4.50;;
29422;SDS011;16399;51.686;8.684;2023-08-08T06:45:14;9.68;;;3.83;;
29422;SDS011;16399;51.686;8.684;2023-08-08T06:48:16;10.80;;;4.30;;
29422;SDS011;16399;51.686;8.684;2023-08-08T06:51:18;10.20;;;4.25;;
29422;SDS011;16399;51.686;8.684;2023-08-08T06:54:21;10.10;;;3.98;;
29422;SDS011;16399;51.686;8.684;2023-08-08T06:57:23;12.23;;;4.53;;
29422;SDS011;16399;51.686;8.684;2023-08-08T07:00:25;8.53;;;4.65;;
29422;SDS011;16399;51.686;8.684;2023-08-08T07:03:28;9.20;;;4.55;;
29422;SDS011;16399;51.686;8.684;2023-08-08T07:06:30;10.75;;;4.83;;
29422;SDS011;16399;51.686;8.684;2023-08-08T07:09:33;12.43;;;5.17;;
29422;SDS011;16399;51.686;8.684;2023-08-08T07:12:35;14.65;;;5.08;;
29422;SDS011;16399;51.686;8.684;2023-08-08T07:15:37;9.93;;;4.58;;
29422;SDS011;16399;51.686;8.684;2023-08-08T07:18:40;12.03;;;5.05;;
29422;SDS011;16399;51.686;8.684;2023-08-08T07:21:42;10.00;;;5.42;;
29422;SDS011;16399;51.686;8.684;2023-08-08T07:24:44;12.43;;;6.50;;
29422;SDS011;16399;51.686;8.684;2023-08-08T07:27:46;11.10;;;5.95;;
29422;SDS011;16399;51.686;8.684;2023-08-08T07:30:49;16.20;;;6.53;;
29422;SDS011;16399;51.686;8.684;2023-08-08T07:33:51;9.40;;;5.45;;
29422;SDS011;16399;51.686;8.684;2023-08-08T07:36:53;12.18;;;5.83;;
29422;SDS011;16399;51.686;8.684;2023-08-08T07:39:56;12.30;;;6.47;;
29422;SDS011;16399;51.686;8.684;2023-08-08T07:42:58;14.40;;;6.60;;
29422;SDS011;16399;51.686;8.684;2023-08-08T07:46:01;14.07;;;6.45;;
29422;SDS011;16399;51.686;8.684;2023-08-08T07:49:03;17.70;;;6.67;;
29422;SDS011;16399;51.686;8.684;2023-08-08T07:52:07;16.97;;;7.45;;
29422;SDS011;16399;51.686;8.684;2023-08-08T07:55:09;13.60;;;7.05;;
29422;SDS011;16399;51.686;8.684;2023-08-08T07:58:11;14.80;;;7.33;;
29422;SDS011;16399;51.686;8.684;2023-08-08T08:01:13;12.20;;;6.85;;
29422;SDS011;16399;51.686;8.684;2023-08-08T08:04:17;19.92;;;8.03;;
29422;SDS011;16399;51.686;8.684;2023-08-08T08:07:19;15.53;;;7.17;;
29422;SDS011;16399;51.686;8.684;2023-08-08T08:10:21;13.13;;;6.47;;
29422;SDS011;16399;51.686;8.684;2023-08-08T08:13:24;14.18;;;6.90;;
29422;SDS011;16399;51.686;8.684;2023-08-08T08:16:26;12.93;;;6.67;;
29422;SDS011;16399;51.686;8.684;2023-08-08T08:19:28;13.32;;;6.85;;
29422;SDS011;16399;51.686;8.684;2023-08-08T08:22:31;11.48;;;6.50;;
29422;SDS011;16399;51.686;8.684;2023-08-08T08:25:34;16.35;;;7.08;;
29422;SDS011;16399;51.686;8.684;2023-08-08T08:28:36;12.35;;;6.50;;
29422;SDS011;16399;51.686;8.684;2023-08-08T08:31:40;13.10;;;5.78;;
29422;SDS011;16399;51.686;8.684;2023-08-08T08:34:42;11.90;;;6.37;;
29422;SDS011;16399;51.686;8.684;2023-08-08T08:37:44;14.03;;;6.33;;
29422;SDS011;16399;51.686;8.684;2023-08-08T08:40:47;12.47;;;5.90;;
29422;SDS011;16399;51.686;8.684;2023-08-08T08:43:49;10.25;;;5.10;;
29422;SDS011;16399;51.686;8.684;2023-08-08T08:46:52;12.33;;;5.70;;
29422;SDS011;16399;51.686;8.684;2023-08-08T08:49:55;14.13;;;4.53;;
29422;SDS011;16399;51.686;8.684;2023-08-08T08:52:59;10.78;;;4.83;;
29422;SDS011;16399;51.686;8.684;2023-08-08T08:56:02;10.00;;;4.33;;
29422;SDS011;16399;51.686;8.684;2023-08-08T08:59:05;12.25;;;5.05;;
29422;SDS011;16399;51.686;8.684;2023-08-08T09:02:08;10.82;;;3.85;;
29422;SDS011;16399;51.686;8.684;2023-08-08T09:05:12;10.00;;;4.33;;
29422;SDS011;16399;51.686;8.684;2023-08-08T09:08:14;9.50;;;4.15;;
29422;SDS011;16399;51.686;8.684;2023-08-08T09:11:18;12.82;;;4.05;;
29422;SDS011;16399;51.686;8.684;2023-08-08T09:14:20;8.18;;;3.98;;
29422;SDS011;16399;51.686;8.684;2023-08-08T09:17:27;12.30;;;3.67;;
29422;SDS011;16399;51.686;8.684;2023-08-08T09:20:29;5.78;;;2.80;;
29422;SDS011;16399;51.686;8.684;2023-08-08T09:23:32;6.85;;;3.10;;
29422;SDS011;16399;51.686;8.684;2023-08-08T09:26:34;5.83;;;3.00;;
29422;SDS011;16399;51.686;8.684;2023-08-08T09:29:37;8.23;;;3.17;;
29422;SDS011;16399;51.686;8.684;2023-08-08T09:32:40;7.17;;;2.75;;
29422;SDS011;16399;51.686;8.684;2023-08-08T09:35:45;6.55;;;2.52;;
29422;SDS011;16399;51.686;8.684;2023-08-08T09:38:48;7.00;;;2.70;;
29422;SDS011;16399;51.686;8.684;2023-08-08T09:41:50;8.13;;;2.58;;
29422;SDS011;16399;51.686;8.684;2023-08-08T09:44:52;7.25;;;2.83;;
29422;SDS011;16399;51.686;8.684;2023-08-08T09:47:55;6.75;;;2.62;;
29422;SDS011;16399;51.686;8.684;2023-08-08T09:50:58;9.40;;;3.52;;
29422;SDS011;16399;51.686;8.684;2023-08-08T09:54:00;13.35;;;3.47;;
29422;SDS011;16399;51.686;8.684;2023-08-08T09:57:04;8.83;;;2.65;;
29422;SDS011;16399;51.686;8.684;2023-08-08T10:00:08;8.90;;;2.92;;
29422;SDS011;16399;51.686;8.684;2023-08-08T10:03:13;7.08;;;2.92;;
29422;SDS011;16399;51.686;8.684;2023-08-08T10:06:15;6.45;;;2.30;;
29422;SDS011;16399;51.686;8.684;2023-08-08T10:09:18;8.08;;;2.92;;
29422;SDS011;16399;51.686;8.684;2023-08-08T10:12:21;6.28;;;2.50;;
29422;SDS011;16399;51.686;8.684;2023-08-08T10:15:26;5.90;;;3.17;;
29422;SDS011;16399;51.686;8.684;2023-08-08T10:18:29;6.60;;;2.62;;
29422;SDS011;16399;51.686;8.684;2023-08-08T10:21:36;10.07;;;3.17;;
29422;SDS011;16399;51.686;8.684;2023-08-08T10:24:40;5.47;;;3.30;;
29422;SDS011;16399;51.686;8.684;2023-08-08T10:27:42;6.67;;;3.00;;
29422;SDS011;16399;51.686;8.684;2023-08-08T10:30:49;8.78;;;3.00;;
29422;SDS011;16399;51.686;8.684;2023-08-08T10:34:05;7.33;;;2.60;;
29422;SDS011;16399;51.686;8.684;2023-08-08T10:37:11;9.28;;;3.00;;
29422;SDS011;16399;51.686;8.684;2023-08-08T10:40:16;16.62;;;3.10;;
29422;SDS011;16399;51.686;8.684;2023-08-08T10:43:24;12.53;;;3.30;;
29422;SDS011;16399;51.686;8.684;2023-08-08T10:46:26;10.63;;;3.35;;
29422;SDS011;16399;51.686;8.684;2023-08-08T10:49:30;20.40;;;3.17;;
29422;SDS011;16399;51.686;8.684;2023-08-08T10:52:33;7.15;;;3.05;;
29422;SDS011;16399;51.686;8.684;2023-08-08T10:55:37;12.05;;;3.92;;
29422;SDS011;16399;51.686;8.684;2023-08-08T10:58:40;8.78;;;2.52;;
29422;SDS011;16399;51.686;8.684;2023-08-08T11:01:47;7.83;;;2.65;;
29422;SDS011;16399;51.686;8.684;2023-08-08T11:04:51;8.53;;;2.30;;
29422;SDS011;16399;51.686;8.684;2023-08-08T11:07:53;8.68;;;2.45;;
29422;SDS011;16399;51.686;8.684;2023-08-08T11:10:57;7.85;;;2.10;;
29422;SDS011;16399;51.686;8.684;2023-08-08T11:13:59;4.95;;;2.30;;
29422;SDS011;16399;51.686;8.684;2023-08-08T11:17:03;11.33;;;2.30;;
29422;SDS011;16399;51.686;8.684;2023-08-08T11:20:06;6.17;;;2.45;;
29422;SDS011;16399;51.686;8.684;2023-08-08T11:23:09;6.30;;;2.22;;
29422;SDS011;16399;51.686;8.684;2023-08-08T11:26:12;9.30;;;2.42;;
29422;SDS011;16399;51.686;8.684;2023-08-08T11:29:16;6.60;;;2.30;;
29422;SDS011;16399;51.686;8.684;2023-08-08T11:32:19;10.15;;;2.37;;
29422;SDS011;16399;51.686;8.684;2023-08-08T11:35:22;6.08;;;2.15;;
29422;SDS011;16399;51.686;8.684;2023-08-08T11:38:25;6.10;;;2.22;;
29422;SDS011;16399;51.686;8.684;2023-08-08T11:41:28;7.22;;;2.45;;
29422;SDS011;16399;51.686;8.684;2023-08-08T11:44:30;6.33;;;2.02;;
29422;SDS011;16399;51.686;8.684;2023-08-08T11:47:33;3.58;;;1.67;;
29422;SDS011;16399;51.686;8.684;2023-08-08T11:50:36;5.53;;;2.15;;
29422;SDS011;16399;51.686;8.684;2023-08-08T11:53:50;9.03;;;2.60;;
29422;SDS011;16399;51.686;8.684;2023-08-08T11:56:53;5.72;;;1.98;;
29422;SDS011;16399;51.686;8.684;2023-08-08T11:59:56;4.92;;;2.02;;
29422;SDS011;16399;51.686;8.684;2023-08-08T12:03:00;7.08;;;1.95;;
29422;SDS011;16399;51.686;8.684;2023-08-08T12:06:14;6.37;;;1.70;;
29422;SDS011;16399;51.686;8.684;2023-08-08T12:09:16;7.50;;;2.20;;
29422;SDS011;16399;51.686;8.684;2023-08-08T12:12:19;6.87;;;2.20;;
29422;SDS011;16399;51.686;8.684;2023-08-08T12:15:21;8.50;;;2.05;;
29422;SDS011;16399;51.686;8.684;2023-08-08T12:18:23;6.30;;;1.85;;
29422;SDS011;16399;51.686;8.684;2023-08-08T12:21:26;7.33;;;1.90;;
29422;SDS011;16399;51.686;8.684;2023-08-08T12:24:28;5.08;;;1.70;;
29422;SDS011;16399;51.686;8.684;2023-08-08T12:27:30;7.12;;;2.20;;
29422;SDS011;16399;51.686;8.684;2023-08-08T12:30:33;5.70;;;1.82;;
29422;SDS011;16399;51.686;8.684;2023-08-08T12:33:35;6.85;;;2.10;;
29422;SDS011;16399;51.686;8.684;2023-08-08T12:36:37;9.25;;;2.33;;
29422;SDS011;16399;51.686;8.684;2023-08-08T12:39:40;5.03;;;1.90;;
29422;SDS011;16399;51.686;8.684;2023-08-08T12:42:42;7.15;;;2.02;;
29422;SDS011;16399;51.686;8.684;2023-08-08T12:45:45;5.97;;;1.98;;
29422;SDS011;16399;51.686;8.684;2023-08-08T12:48:48;6.40;;;2.60;;
29422;SDS011;16399;51.686;8.684;2023-08-08T12:51:50;6.20;;;1.98;;
29422;SDS011;16399;51.686;8.684;2023-08-08T12:54:55;6.35;;;1.87;;
29422;SDS011;16399;51.686;8.684;2023-08-08T12:57:57;5.37;;;1.65;;
29422;SDS011;16399;51.686;8.684;2023-08-08T13:00:59;6.12;;;1.52;;
29422;SDS011;16399;51.686;8.684;2023-08-08T13:04:02;5.47;;;1.77;;
29422;SDS011;16399;51.686;8.684;2023-08-08T13:07:04;5.65;;;1.80;;
29422;SDS011;16399;51.686;8.684;2023-08-08T13:10:07;5.62;;;1.67;;
29422;SDS011;16399;51.686;8.684;2023-08-08T13:13:10;6.60;;;2.27;;
29422;SDS011;16399;51.686;8.684;2023-08-08T13:16:13;5.58;;;1.87;;
29422;SDS011;16399;51.686;8.684;2023-08-08T13:19:16;7.33;;;2.35;;
29422;SDS011;16399;51.686;8.684;2023-08-08T13:22:20;6.05;;;2.00;;
29422;SDS011;16399;51.686;8.684;2023-08-08T13:25:22;6.17;;;2.02;;
29422;SDS011;16399;51.686;8.684;2023-08-08T13:28:24;11.80;;;2.55;;
29422;SDS011;16399;51.686;8.684;2023-08-08T13:31:27;7.35;;;2.25;;
29422;SDS011;16399;51.686;8.684;2023-08-08T13:34:29;6.08;;;1.45;;
29422;SDS011;16399;51.686;8.684;2023-08-08T13:37:32;7.65;;;2.42;;
29422;SDS011;16399;51.686;8.684;2023-08-08T13:40:34;4.67;;;1.67;;
29422;SDS011;16399;51.686;8.684;2023-08-08T13:43:36;8.15;;;2.37;;
29422;SDS011;16399;51.686;8.684;2023-08-08T13:46:39;7.50;;;1.90;;
29422;SDS011;16399;51.686;8.684;2023-08-08T13:49:41;7.08;;;2.08;;
29422;SDS011;16399;51.686;8.684;2023-08-08T13:52:43;8.03;;;1.90;;
29422;SDS011;16399;51.686;8.684;2023-08-08T13:55:45;8.18;;;1.92;;
29422;SDS011;16399;51.686;8.684;2023-08-08T13:58:48;4.75;;;1.92;;
29422;SDS011;16399;51.686;8.684;2023-08-08T14:01:51;5.53;;;1.77;;
29422;SDS011;16399;51.686;8.684;2023-08-08T14:04:53;5.45;;;1.85;;
29422;SDS011;16399;51.686;8.684;2023-08-08T14:07:55;9.53;;;1.90;;
29422;SDS011;16399;51.686;8.684;2023-08-08T14:10:57;4.22;;;1.50;;
29422;SDS011;16399;51.686;8.684;2023-08-08T14:14:00;6.90;;;2.08;;
29422;SDS011;16399;51.686;8.684;2023-08-08T14:17:02;6.33;;;1.82;;
29422;SDS011;16399;51.686;8.684;2023-08-08T14:20:05;9.15;;;1.90;;
29422;SDS011;16399;51.686;8.684;2023-08-08T14:23:08;7.15;;;1.90;;
29422;SDS011;16399;51.686;8.684;2023-08-08T14:26:10;5.80;;;1.70;;
29422;SDS011;16399;51.686;8.684;2023-08-08T14:29:12;4.85;;;1.92;;
29422;SDS011;16399;51.686;8.684;2023-08-08T14:32:15;7.20;;;2.00;;
29422;SDS011;16399;51.686;8.684;2023-08-08T14:35:17;6.53;;;1.60;;
29422;SDS011;16399;51.686;8.684;2023-08-08T14:38:23;6.72;;;2.00;;
29422;SDS011;16399;51.686;8.684;2023-08-08T14:41:25;4.55;;;1.52;;
29422;SDS011;16399;51.686;8.684;2023-08-08T14:44:27;5.87;;;1.62;;
29422;SDS011;16399;51.686;8.684;2023-08-08T14:47:29;7.37;;;1.72;;
29422;SDS011;16399;51.686;8.684;2023-08-08T14:50:32;4.95;;;1.57;;
29422;SDS011;16399;51.686;8.684;2023-08-08T14:53:34;4.50;;;1.70;;
29422;SDS011;16399;51.686;8.684;2023-08-08T14:56:36;5.75;;;1.70;;
29422;SDS011;16399;51.686;8.684;2023-08-08T14:59:39;5.60;;;1.40;;
29422;SDS011;16399;51.686;8.684;2023-08-08T15:02:41;5.53;;;1.90;;
29422;SDS011;16399;51.686;8.684;2023-08-08T15:05:44;4.25;;;1.50;;
29422;SDS011;16399;51.686;8.684;2023-08-08T15:08:48;5.10;;;1.80;;
29422;SDS011;16399;51.686;8.684;2023-08-08T15:11:50;8.33;;;2.10;;
29422;SDS011;16399;51.686;8.684;2023-08-08T15:14:52;5.83;;;1.98;;
29422;SDS011;16399;51.686;8.684;2023-08-08T15:17:55;7.87;;;2.10;;
29422;SDS011;16399;51.686;8.684;2023-08-08T15:20:57;6.70;;;2.10;;
29422;SDS011;16399;51.686;8.684;2023-08-08T15:23:59;5.12;;;2.15;;
29422;SDS011;16399;51.686;8.684;2023-08-08T15:27:02;6.72;;;2.20;;
29422;SDS011;16399;51.686;8.684;2023-08-08T15:30:05;6.85;;;2.37;;
29422;SDS011;16399;51.686;8.684;2023-08-08T15:33:08;6.53;;;1.98;;
29422;SDS011;16399;51.686;8.684;2023-08-08T15:36:10;8.50;;;2.20;;
29422;SDS011;16399;51.686;8.684;2023-08-08T15:39:12;9.70;;;2.25;;
29422;SDS011;16399;51.686;8.684;2023-08-08T15:42:16;5.20;;;2.45;;
29422;SDS011;16399;51.686;8.684;2023-08-08T15:45:18;5.37;;;2.08;;
29422;SDS011;16399;51.686;8.684;2023-08-08T15:48:20;7.90;;;2.27;;
29422;SDS011;16399;51.686;8.684;2023-08-08T15:51:22;5.00;;;1.95;;
29422;SDS011;16399;51.686;8.684;2023-08-08T15:54:25;7.67;;;2.17;;
29422;SDS011;16399;51.686;8.684;2023-08-08T15:57:27;4.17;;;1.62;;
29422;SDS011;16399;51.686;8.684;2023-08-08T16:00:29;6.35;;;1.95;;
29422;SDS011;16399;51.686;8.684;2023-08-08T16:03:32;4.78;;;1.50;;
29422;SDS011;16399;51.686;8.684;2023-08-08T16:06:35;7.28;;;1.60;;
29422;SDS011;16399;51.686;8.684;2023-08-08T16:09:38;7.67;;;2.08;;
29422;SDS011;16399;51.686;8.684;2023-08-08T16:12:40;7.08;;;1.62;;
29422;SDS011;16399;51.686;8.684;2023-08-08T16:15:42;6.35;;;2.00;;
29422;SDS011;16399;51.686;8.684;2023-08-08T16:18:45;4.58;;;1.95;;
29422;SDS011;16399;51.686;8.684;2023-08-08T16:21:47;4.25;;;1.55;;
29422;SDS011;16399;51.686;8.684;2023-08-08T16:24:50;3.67;;;1.60;;
29422;SDS011;16399;51.686;8.684;2023-08-08T16:27:52;4.22;;;1.67;;
29422;SDS011;16399;51.686;8.684;2023-08-08T16:30:55;4.58;;;1.45;;
29422;SDS011;16399;51.686;8.684;2023-08-08T16:33:57;2.87;;;1.20;;
29422;SDS011;16399;51.686;8.684;2023-08-08T16:36:59;5.25;;;1.90;;
29422;SDS011;16399;51.686;8.684;2023-08-08T16:40:02;6.62;;;1.72;;
29422;SDS011;16399;51.686;8.684;2023-08-08T16:43:04;4.85;;;1.67;;
29422;SDS011;16399;51.686;8.684;2023-08-08T16:46:07;2.77;;;1.35;;
29422;SDS011;16399;51.686;8.684;2023-08-08T16:49:10;3.50;;;1.30;;
29422;SDS011;16399;51.686;8.684;2023-08-08T16:52:12;6.87;;;1.40;;
29422;SDS011;16399;51.686;8.684;2023-08-08T16:55:14;3.85;;;1.72;;
29422;SDS011;16399;51.686;8.684;2023-08-08T16:58:17;4.75;;;1.20;;
29422;SDS011;16399;51.686;8.684;2023-08-08T17:01:19;7.90;;;1.75;;
29422;SDS011;16399;51.686;8.684;2023-08-08T17:04:21;3.62;;;1.50;;
29422;SDS011;16399;51.686;8.684;2023-08-08T17:07:23;4.45;;;1.35;;
29422;SDS011;16399;51.686;8.684;2023-08-08T17:10:26;4.20;;;1.55;;
29422;SDS011;16399;51.686;8.684;2023-08-08T17:13:29;5.05;;;1.40;;
29422;SDS011;16399;51.686;8.684;2023-08-08T17:16:31;4.25;;;1.77;;
29422;SDS011;16399;51.686;8.684;2023-08-08T17:19:33;3.33;;;1.30;;
29422;SDS011;16399;51.686;8.684;2023-08-08T17:22:36;3.17;;;1.47;;
29422;SDS011;16399;51.686;8.684;2023-08-08T17:25:38;3.40;;;1.17;;
29422;SDS011;16399;51.686;8.684;2023-08-08T17:28:40;5.53;;;1.70;;
29422;SDS011;16399;51.686;8.684;2023-08-08T17:31:43;3.10;;;1.22;;
29422;SDS011;16399;51.686;8.684;2023-08-08T17:34:45;2.33;;;1.17;;
29422;SDS011;16399;51.686;8.684;2023-08-08T17:37:47;6.65;;;1.52;;
29422;SDS011;16399;51.686;8.684;2023-08-08T17:40:50;3.05;;;1.20;;
29422;SDS011;16399;51.686;8.684;2023-08-08T17:43:52;5.20;;;1.35;;
29422;SDS011;16399;51.686;8.684;2023-08-08T17:46:54;4.15;;;1.25;;
29422;SDS011;16399;51.686;8.684;2023-08-08T17:49:57;2.80;;;1.20;;
29422;SDS011;16399;51.686;8.684;2023-08-08T17:52:59;5.53;;;1.05;;
29422;SDS011;16399;51.686;8.684;2023-08-08T17:56:01;4.75;;;1.00;;
29422;SDS011;16399;51.686;8.684;2023-08-08T17:59:05;3.58;;;1.10;;
29422;SDS011;16399;51.686;8.684;2023-08-08T18:02:07;3.75;;;1.10;;
29422;SDS011;16399;51.686;8.684;2023-08-08T18:05:09;7.83;;;1.00;;
29422;SDS011;16399;51.686;8.684;2023-08-08T18:08:13;2.47;;;1.15;;
29422;SDS011;16399;51.686;8.684;2023-08-08T18:11:15;2.70;;;1.00;;
29422;SDS011;16399;51.686;8.684;2023-08-08T18:14:18;4.35;;;1.12;;
29422;SDS011;16399;51.686;8.684;2023-08-08T18:17:20;1.85;;;0.80;;
29422;SDS011;16399;51.686;8.684;2023-08-08T18:20:23;2.12;;;0.88;;